Time;durP1;ratioP1;P1;durP2;ratioP2;P2;SDS_P1;SDS_P2;PMS_P1;PMS_P2;Temp;Humidity;BMP_temperature;BMP_pressure;BME280_temperature;BME280_humidity;BME280_pressure;Samples;Min_cycle;Max_cycle;Signal;HPM_P1;HPM_P2
2021/12/30 00:01:05;;;;;;;7.97;2.88;;;;;15.60;100828.00;;;;5030414;28;20199;-84
2021/12/30 00:03:32;;;;;;;11.43;2.67;;;;;15.70;100822.00;;;;5030932;28;20196;-83
2021/12/30 00:06:00;;;;;;;11.63;3.03;;;;;15.70;100837.00;;;;5047451;28;20235;-84
2021/12/30 00:08:27;;;;;;;5.30;2.38;;;;;15.70;100829.00;;;;5050580;28;20655;-83
2021/12/30 00:10:54;;;;;;;8.27;2.67;;;;;15.80;100828.00;;;;5050237;28;20218;-84
2021/12/30 00:13:23;;;;;;;6.45;2.10;;;;;15.70;100832.00;;;;5050874;28;20203;-83
2021/12/30 00:15:51;;;;;;;6.85;2.70;;;;;15.80;100849.00;;;;5049840;28;20219;-85
2021/12/30 00:18:19;;;;;;;11.13;2.88;;;;;15.80;100864.00;;;;5050293;28;20604;-84
2021/12/30 00:20:47;;;;;;;8.43;2.58;;;;;15.80;100850.00;;;;5049753;28;20200;-84
2021/12/30 00:23:14;;;;;;;10.70;3.17;;;;;15.80;100850.00;;;;5049047;28;20203;-84
2021/12/30 00:25:42;;;;;;;10.10;2.47;;;;;15.90;100838.00;;;;5050400;28;20204;-84
2021/12/30 00:28:12;;;;;;;11.20;2.95;;;;;15.90;100836.00;;;;5050370;28;20188;-83
2021/12/30 00:30:41;;;;;;;9.43;2.95;;;;;15.90;100833.00;;;;5049385;28;20596;-84
2021/12/30 00:33:08;;;;;;;11.77;2.58;;;;;16.00;100831.00;;;;5050199;28;20211;-84
2021/12/30 00:35:36;;;;;;;10.00;2.50;;;;;16.00;100830.00;;;;5048980;28;20781;-84
2021/12/30 00:38:04;;;;;;;12.90;3.30;;;;;16.00;100835.00;;;;5048843;28;20559;-84
2021/12/30 00:40:32;;;;;;;15.05;3.10;;;;;16.00;100835.00;;;;5030643;28;20207;-83
2021/12/30 00:43:00;;;;;;;12.52;3.53;;;;;16.00;100827.00;;;;5029474;28;20219;-85
2021/12/30 00:45:28;;;;;;;12.43;3.53;;;;;16.00;100830.00;;;;5030212;28;20757;-84
2021/12/30 00:47:57;;;;;;;13.95;3.53;;;;;16.10;100836.00;;;;5030603;28;20667;-85
2021/12/30 00:50:25;;;;;;;12.50;3.58;;;;;16.10;100826.00;;;;5030126;28;20200;-84
2021/12/30 00:52:53;;;;;;;16.58;3.75;;;;;16.10;100826.00;;;;5030873;28;20201;-84
2021/12/30 00:55:20;;;;;;;8.93;3.75;;;;;16.20;100831.00;;;;5030937;28;20258;-84
2021/12/30 00:57:48;;;;;;;15.93;3.95;;;;;16.20;100844.00;;;;5030330;28;20204;-84
2021/12/30 01:00:18;;;;;;;14.50;4.00;;;;;16.20;100846.00;;;;5030369;28;20204;-84
2021/12/30 01:02:46;;;;;;;14.02;4.57;;;;;16.20;100845.00;;;;5030237;28;20196;-84
2021/12/30 01:05:15;;;;;;;12.93;4.03;;;;;16.20;100838.00;;;;5029957;28;20212;-84
2021/12/30 01:07:43;;;;;;;12.27;3.67;;;;;16.30;100847.00;;;;5030236;28;20207;-85
2021/12/30 01:10:12;;;;;;;7.93;3.75;;;;;16.30;100857.00;;;;5029597;28;20204;-84
2021/12/30 01:12:40;;;;;;;14.30;4.55;;;;;16.30;100865.00;;;;5035753;28;20218;-84
2021/12/30 01:15:11;;;;;;;13.05;4.40;;;;;16.30;100867.00;;;;5049989;28;20231;-84
2021/12/30 01:17:47;;;;;;;10.63;4.05;;;;;16.40;100869.00;;;;5049266;28;20237;-84
2021/12/30 01:20:18;;;;;;;9.40;3.83;;;;;16.40;100873.00;;;;5049578;28;20203;-83
2021/12/30 01:22:47;;;;;;;11.50;3.80;;;;;16.50;100879.00;;;;5049406;28;20202;-84
2021/12/30 01:25:15;;;;;;;8.93;3.30;;;;;16.50;100881.00;;;;5049693;28;20290;-85
2021/12/30 01:27:43;;;;;;;12.20;4.22;;;;;16.50;100867.00;;;;5049266;28;20210;-84
2021/12/30 01:30:14;;;;;;;10.57;4.07;;;;;16.60;100873.00;;;;5039084;28;20201;-84
2021/12/30 01:32:42;;;;;;;8.48;3.78;;;;;16.60;100876.00;;;;5029196;28;20204;-84
2021/12/30 01:35:12;;;;;;;11.48;3.60;;;;;16.60;100893.00;;;;5030157;28;20228;-84
2021/12/30 01:37:41;;;;;;;13.60;4.40;;;;;16.60;100890.00;;;;5029365;28;20244;-83
2021/12/30 01:40:13;;;;;;;13.25;5.07;;;;;16.60;100885.00;;;;5029565;28;20211;-83
2021/12/30 01:42:41;;;;;;;13.10;3.67;;;;;16.70;100882.00;;;;5029072;28;20206;-84
2021/12/30 01:45:10;;;;;;;9.50;2.92;;;;;16.70;100872.00;;;;5046581;28;20595;-85
2021/12/30 01:47:42;;;;;;;13.55;4.00;;;;;16.80;100890.00;;;;5035047;28;20200;-84
2021/12/30 01:50:10;;;;;;;11.27;3.83;;;;;16.80;100890.00;;;;5029289;28;20228;-84
2021/12/30 01:52:38;;;;;;;11.55;4.38;;;;;16.80;100902.00;;;;5029145;28;20200;-85
2021/12/30 01:55:07;;;;;;;9.65;3.50;;;;;16.80;100900.00;;;;5028223;28;20235;-84
2021/12/30 01:57:35;;;;;;;10.93;4.88;;;;;16.90;100910.00;;;;5029068;28;20208;-84
2021/12/30 02:00:03;;;;;;;14.57;4.75;;;;;17.00;100906.00;;;;5028581;28;20421;-84
2021/12/30 02:02:30;;;;;;;12.18;4.40;;;;;17.00;100909.00;;;;5033877;28;20212;-84
2021/12/30 02:04:58;;;;;;;11.00;4.47;;;;;17.00;100910.00;;;;5048469;28;20207;-84
2021/12/30 02:07:25;;;;;;;11.73;5.20;;;;;17.00;100913.00;;;;5048402;28;20191;-84
2021/12/30 02:09:59;;;;;;;11.25;4.35;;;;;17.10;100907.00;;;;5049258;28;20676;-84
2021/12/30 02:12:28;;;;;;;14.20;5.03;;;;;17.10;100909.00;;;;5048880;28;20290;-84
2021/12/30 02:14:55;;;;;;;13.50;4.05;;;;;17.10;100925.00;;;;5048365;28;20684;-83
2021/12/30 02:17:23;;;;;;;10.25;4.00;;;;;17.20;100920.00;;;;5048237;28;20231;-85
2021/12/30 02:19:50;;;;;;;10.73;4.95;;;;;17.20;100915.00;;;;5048412;28;20204;-84
2021/12/30 02:22:19;;;;;;;8.38;3.92;;;;;17.20;100915.00;;;;5030177;28;20208;-84
2021/12/30 02:24:47;;;;;;;14.02;4.80;;;;;17.20;100905.00;;;;5048496;28;20526;-84
2021/12/30 02:27:14;;;;;;;10.68;4.63;;;;;17.20;100900.00;;;;5048247;28;20202;-84
2021/12/30 02:29:42;;;;;;;7.68;4.10;;;;;17.30;100899.00;;;;5048153;28;20204;-85
2021/12/30 02:32:09;;;;;;;9.40;4.13;;;;;17.30;100900.00;;;;5048213;28;20199;-85
2021/12/30 02:34:38;;;;;;;10.40;4.00;;;;;17.30;100900.00;;;;5047362;28;20223;-84
2021/12/30 02:37:06;;;;;;;12.05;4.72;;;;;17.30;100903.00;;;;5046377;28;20275;-84
2021/12/30 02:39:35;;;;;;;8.77;4.05;;;;;17.30;100909.00;;;;5027421;28;20204;-85
2021/12/30 02:42:03;;;;;;;6.75;3.60;;;;;17.40;100920.00;;;;5028192;28;20212;-85
2021/12/30 02:44:30;;;;;;;9.27;4.47;;;;;17.40;100921.00;;;;5027906;28;20188;-83
2021/12/30 02:46:57;;;;;;;10.02;4.00;;;;;17.40;100914.00;;;;5047532;28;20733;-84
2021/12/30 02:49:24;;;;;;;11.38;4.57;;;;;17.40;100924.00;;;;5048120;28;20203;-84
2021/12/30 02:51:52;;;;;;;5.97;3.45;;;;;17.40;100918.00;;;;5047381;28;20443;-84
2021/12/30 02:54:19;;;;;;;8.60;3.83;;;;;17.40;100916.00;;;;5044494;28;20668;-84
2021/12/30 02:56:48;;;;;;;9.00;3.53;;;;;17.40;100931.00;;;;5027951;28;20259;-84
2021/12/30 02:59:16;;;;;;;6.15;3.33;;;;;17.50;100927.00;;;;5027428;28;20227;-84
2021/12/30 03:01:43;;;;;;;8.15;3.53;;;;;17.50;100925.00;;;;5027745;28;20662;-84
2021/12/30 03:04:12;;;;;;;6.97;3.78;;;;;17.50;100921.00;;;;5046869;28;20200;-83
2021/12/30 03:06:40;;;;;;;8.23;3.83;;;;;17.60;100927.00;;;;5049099;28;20204;-85
2021/12/30 03:09:07;;;;;;;5.78;3.90;;;;;17.60;100935.00;;;;5051318;28;20207;-85
2021/12/30 03:11:35;;;;;;;5.15;2.88;;;;;17.60;100930.00;;;;5050883;28;20216;-84
2021/12/30 03:14:04;;;;;;;4.68;3.13;;;;;17.60;100936.00;;;;5051567;28;20203;-84
2021/12/30 03:16:35;;;;;;;6.30;3.22;;;;;17.70;100939.00;;;;5051363;28;20227;-84
2021/12/30 03:19:02;;;;;;;6.55;3.55;;;;;17.70;100929.00;;;;5051520;28;20203;-85
2021/12/30 03:21:30;;;;;;;4.78;3.15;;;;;17.70;100932.00;;;;5050362;28;20227;-85
2021/12/30 03:24:02;;;;;;;5.90;3.05;;;;;17.70;100937.00;;;;5051487;28;20644;-84
2021/12/30 03:26:29;;;;;;;5.15;3.10;;;;;17.80;100935.00;;;;5051100;28;20581;-84
2021/12/30 03:28:57;;;;;;;8.40;3.65;;;;;17.80;100936.00;;;;5043018;28;20215;-84
2021/12/30 03:31:25;;;;;;;5.63;2.80;;;;;17.80;100942.00;;;;5031515;28;20301;-84
2021/12/30 03:33:53;;;;;;;6.32;3.80;;;;;17.80;100937.00;;;;5036535;28;20195;-84
2021/12/30 03:36:21;;;;;;;6.75;3.00;;;;;17.80;100933.00;;;;5051549;28;20227;-84
2021/12/30 03:38:50;;;;;;;4.35;2.95;;;;;17.80;100927.00;;;;5051094;28;20262;-83
2021/12/30 03:41:20;;;;;;;10.75;3.92;;;;;17.80;100929.00;;;;5051374;28;20975;-84
2021/12/30 03:43:47;;;;;;;8.55;4.18;;;;;17.90;100926.00;;;;5050887;28;20206;-84
2021/12/30 03:46:14;;;;;;;6.95;3.95;;;;;17.90;100919.00;;;;5049596;28;20584;-84
2021/12/30 03:48:44;;;;;;;4.63;3.17;;;;;17.90;100923.00;;;;5051192;28;20207;-84
2021/12/30 03:51:20;;;;;;;6.78;3.50;;;;;17.90;100921.00;;;;5051567;28;20683;-84
2021/12/30 03:53:49;;;;;;;6.35;3.38;;;;;17.90;100921.00;;;;5051055;28;20221;-84
2021/12/30 03:56:19;;;;;;;5.10;3.08;;;;;17.90;100926.00;;;;5050433;28;20224;-85
2021/12/30 03:58:47;;;;;;;6.15;3.00;;;;;17.90;100929.00;;;;5050499;28;20573;-85
2021/12/30 04:01:18;;;;;;;4.93;2.92;;;;;17.90;100928.00;;;;5050439;28;20196;-85
2021/12/30 04:03:48;;;;;;;4.53;2.67;;;;;17.90;100929.00;;;;5046950;28;20626;-84
2021/12/30 04:06:15;;;;;;;2.60;2.22;;;;;17.90;100941.00;;;;5050430;28;20191;-84
2021/12/30 04:08:43;;;;;;;3.40;2.40;;;;;17.90;100946.00;;;;5050339;28;20207;-84
2021/12/30 04:11:10;;;;;;;3.72;3.03;;;;;17.90;100948.00;;;;5050836;28;20204;-84
2021/12/30 04:13:38;;;;;;;3.10;2.67;;;;;17.90;100953.00;;;;5050660;28;20613;-84
2021/12/30 04:16:06;;;;;;;3.55;2.92;;;;;17.90;100960.00;;;;5049392;28;20243;-84
2021/12/30 04:18:34;;;;;;;7.18;3.22;;;;;17.90;100964.00;;;;5049824;28;20213;-84
2021/12/30 04:21:03;;;;;;;3.35;2.85;;;;;17.90;100970.00;;;;5032747;28;20702;-84
2021/12/30 04:23:30;;;;;;;3.58;2.90;;;;;18.00;100968.00;;;;5039428;28;20203;-84
2021/12/30 04:25:58;;;;;;;3.10;2.80;;;;;18.00;100949.00;;;;5049610;28;20574;-82
2021/12/30 04:28:25;;;;;;;3.25;2.70;;;;;18.00;100958.00;;;;5050407;28;20188;-84
2021/12/30 04:30:53;;;;;;;3.40;2.88;;;;;18.00;100954.00;;;;5050622;28;20214;-84
2021/12/30 04:33:21;;;;;;;2.20;2.00;;;;;18.00;100948.00;;;;5050571;28;20196;-83
2021/12/30 04:35:49;;;;;;;1.92;1.77;;;;;18.00;100944.00;;;;5049830;28;20223;-86
2021/12/30 04:38:18;;;;;;;2.00;1.60;;;;;18.00;100949.00;;;;5029981;28;20230;-84
2021/12/30 04:40:45;;;;;;;1.77;1.63;;;;;18.10;100950.00;;;;5029934;28;20208;-83
2021/12/30 04:43:13;;;;;;;1.58;1.33;;;;;18.10;100950.00;;;;5030007;28;20693;-83
2021/12/30 04:45:42;;;;;;;1.42;1.20;;;;;18.10;100942.00;;;;5029479;28;20208;-84
2021/12/30 04:48:10;;;;;;;1.08;0.98;;;;;18.10;100947.00;;;;5029290;28;20597;-84
2021/12/30 04:50:37;;;;;;;2.10;1.20;;;;;18.10;100942.00;;;;5029944;28;20211;-82
2021/12/30 04:53:04;;;;;;;1.42;1.13;;;;;18.10;100947.00;;;;5030861;28;20208;-83
2021/12/30 04:55:33;;;;;;;1.77;1.50;;;;;18.10;100951.00;;;;5049769;28;20231;-83
2021/12/30 04:58:00;;;;;;;1.23;0.88;;;;;18.10;100956.00;;;;5048940;28;20191;-85
2021/12/30 05:00:28;;;;;;;1.90;1.30;;;;;18.10;100943.00;;;;5049474;28;20198;-85
2021/12/30 05:03:08;;;;;;;1.48;1.10;;;;;18.10;100950.00;;;;5049645;28;20200;-83
2021/12/30 05:05:39;;;;;;;2.45;1.10;;;;;18.00;100962.00;;;;5049737;28;21011;-84
2021/12/30 05:08:07;;;;;;;1.60;1.10;;;;;18.00;100952.00;;;;5049283;28;20203;-83
2021/12/30 05:10:36;;;;;;;1.60;0.63;;;;;18.00;100951.00;;;;5048208;28;20215;-84
2021/12/30 05:13:05;;;;;;;2.45;1.20;;;;;18.00;100960.00;;;;5049197;28;20196;-83
2021/12/30 05:15:32;;;;;;;1.50;1.10;;;;;18.00;100953.00;;;;5048819;28;20219;-84
2021/12/30 05:18:00;;;;;;;1.92;1.30;;;;;18.00;100961.00;;;;5048729;28;20642;-84
2021/12/30 05:20:27;;;;;;;2.03;1.13;;;;;18.00;100965.00;;;;5048864;28;20658;-84
2021/12/30 05:22:54;;;;;;;2.50;1.50;;;;;18.00;100969.00;;;;5048930;28;20199;-84
2021/12/30 05:25:22;;;;;;;2.35;1.42;;;;;18.00;100975.00;;;;5049474;28;20211;-83
2021/12/30 05:27:51;;;;;;;2.30;1.25;;;;;18.00;100976.00;;;;5041704;28;20662;-83
2021/12/30 05:30:21;;;;;;;2.08;1.65;;;;;18.00;100974.00;;;;5028880;28;20231;-83
2021/12/30 05:32:49;;;;;;;2.20;1.50;;;;;18.00;100978.00;;;;5028964;28;20581;-83
2021/12/30 05:35:16;;;;;;;2.95;1.63;;;;;18.00;100976.00;;;;5029055;28;20227;-84
2021/12/30 05:37:44;;;;;;;2.53;1.50;;;;;17.90;100977.00;;;;5029287;28;20200;-84
2021/12/30 05:40:14;;;;;;;2.80;1.40;;;;;18.00;100977.00;;;;5029638;28;20196;-84
2021/12/30 05:42:44;;;;;;;3.55;1.50;;;;;18.00;100986.00;;;;5029300;28;20247;-84
2021/12/30 05:45:15;;;;;;;1.60;1.23;;;;;17.90;100983.00;;;;5035444;28;20298;-84
2021/12/30 05:47:42;;;;;;;2.65;1.40;;;;;18.00;100980.00;;;;5049595;28;20654;-85
2021/12/30 05:50:11;;;;;;;3.13;1.67;;;;;17.90;100977.00;;;;5049548;28;20692;-84
2021/12/30 05:52:38;;;;;;;2.78;1.58;;;;;17.90;100976.00;;;;5049381;28;20192;-85
2021/12/30 05:55:09;;;;;;;2.10;1.40;;;;;17.90;100975.00;;;;5048049;28;20203;-85
2021/12/30 05:57:54;;;;;;;2.50;1.35;;;;;17.90;100971.00;;;;5049284;28;20692;-84
2021/12/30 06:00:24;;;;;;;2.40;1.80;;;;;17.90;100965.00;;;;5049044;28;20688;-83
2021/12/30 06:02:52;;;;;;;2.55;1.73;;;;;18.00;100966.00;;;;5032413;28;20212;-82
2021/12/30 06:05:19;;;;;;;3.25;1.80;;;;;18.00;100971.00;;;;5029793;28;20201;-85
2021/12/30 06:07:46;;;;;;;1.73;1.48;;;;;18.00;100972.00;;;;5028590;28;20662;-84
2021/12/30 06:10:14;;;;;;;4.18;1.70;;;;;18.00;100965.00;;;;5029084;28;20208;-84
2021/12/30 06:12:43;;;;;;;2.80;1.50;;;;;18.00;100963.00;;;;5029090;28;20204;-84
2021/12/30 06:15:12;;;;;;;2.15;1.40;;;;;18.00;100965.00;;;;5029221;28;20200;-86
2021/12/30 06:17:41;;;;;;;2.58;1.02;;;;;18.00;100974.00;;;;5028572;28;20395;-84
2021/12/30 06:20:13;;;;;;;1.17;1.05;;;;;18.00;100972.00;;;;5030120;28;20609;-84
2021/12/30 06:22:40;;;;;;;1.88;0.93;;;;;18.00;100969.00;;;;5030307;28;20216;-84
2021/12/30 06:25:08;;;;;;;0.90;0.40;;;;;18.00;100982.00;;;;5048910;28;20595;-84
2021/12/30 06:27:36;;;;;;;1.55;0.73;;;;;18.00;100987.00;;;;5047563;28;20206;-85
2021/12/30 06:30:05;;;;;;;1.58;0.95;;;;;18.00;100989.00;;;;5049019;28;20210;-83
2021/12/30 06:32:32;;;;;;;1.23;0.75;;;;;18.00;101003.00;;;;5046246;28;20215;-84
2021/12/30 06:35:01;;;;;;;1.38;0.63;;;;;18.00;101002.00;;;;5047612;28;20207;-84
2021/12/30 06:37:30;;;;;;;1.20;0.40;;;;;18.00;101004.00;;;;5048624;28;20231;-84
2021/12/30 06:39:57;;;;;;;1.00;0.60;;;;;18.00;101003.00;;;;5048325;28;20208;-85
2021/12/30 06:42:24;;;;;;;1.90;0.60;;;;;18.00;101009.00;;;;5047479;28;20195;-84
2021/12/30 06:44:51;;;;;;;2.53;0.80;;;;;18.00;101010.00;;;;5047925;28;20196;-85
2021/12/30 06:47:19;;;;;;;2.00;0.45;;;;;18.00;101006.00;;;;5048336;28;20203;-83
2021/12/30 06:49:46;;;;;;;1.92;0.60;;;;;18.00;101018.00;;;;5047968;28;20597;-84
2021/12/30 06:52:15;;;;;;;0.68;0.45;;;;;18.00;100991.00;;;;5047378;28;20219;-83
2021/12/30 06:54:42;;;;;;;2.05;0.65;;;;;18.00;101020.00;;;;5047782;28;20207;-82
2021/12/30 06:57:12;;;;;;;1.55;1.02;;;;;17.90;101027.00;;;;5047742;28;20246;-84
2021/12/30 06:59:40;;;;;;;0.90;0.70;;;;;17.90;101026.00;;;;5047211;28;20215;-84
2021/12/30 07:02:07;;;;;;;0.90;0.50;;;;;17.90;101031.00;;;;5047721;28;20589;-85
2021/12/30 07:04:35;;;;;;;1.80;0.90;;;;;17.90;101022.00;;;;5047760;28;20209;-84
2021/12/30 07:07:03;;;;;;;3.05;0.70;;;;;17.90;101028.00;;;;5047501;28;20207;-85
2021/12/30 07:09:32;;;;;;;1.10;0.70;;;;;17.90;101023.00;;;;5046959;28;20586;-84
2021/12/30 07:12:00;;;;;;;0.88;0.60;;;;;17.90;101030.00;;;;5047846;28;20198;-84
2021/12/30 07:14:29;;;;;;;1.10;0.70;;;;;17.90;101025.00;;;;5047634;28;20200;-85
2021/12/30 07:16:56;;;;;;;0.88;0.68;;;;;17.90;101034.00;;;;5046015;28;20334;-83
2021/12/30 07:19:23;;;;;;;1.48;0.70;;;;;17.90;101020.00;;;;5047963;28;20215;-85
2021/12/30 07:21:51;;;;;;;1.20;0.70;;;;;17.90;101032.00;;;;5047420;28;20566;-83
2021/12/30 07:24:20;;;;;;;2.45;0.90;;;;;17.90;101032.00;;;;5047562;28;20203;-85
2021/12/30 07:26:49;;;;;;;1.60;0.85;;;;;17.90;101035.00;;;;5039939;28;20201;-84
2021/12/30 07:29:16;;;;;;;1.42;0.70;;;;;17.90;101030.00;;;;5027009;28;20239;-85
2021/12/30 07:31:43;;;;;;;1.90;1.00;;;;;17.90;101039.00;;;;5027672;28;20208;-84
2021/12/30 07:34:11;;;;;;;3.38;1.35;;;;;17.90;101037.00;;;;5038533;28;20200;-85
2021/12/30 07:36:38;;;;;;;3.15;1.50;;;;;17.90;101039.00;;;;5046860;28;20223;-85
2021/12/30 07:39:06;;;;;;;4.18;2.40;;;;;18.00;101052.00;;;;5046922;28;20200;-85
2021/12/30 07:41:33;;;;;;;5.03;3.10;;;;;17.90;101053.00;;;;5047762;28;20200;-83
2021/12/30 07:44:04;;;;;;;4.13;2.50;;;;;17.90;101055.00;;;;5046791;28;20199;-84
2021/12/30 07:46:32;;;;;;;4.85;2.67;;;;;17.90;101072.00;;;;5046324;28;20208;-84
2021/12/30 07:48:59;;;;;;;4.60;2.65;;;;;17.90;101077.00;;;;5047791;28;20199;-84
2021/12/30 07:51:26;;;;;;;4.97;2.67;;;;;17.90;101068.00;;;;5047376;28;20200;-83
2021/12/30 07:53:53;;;;;;;3.63;2.53;;;;;18.00;101070.00;;;;5049114;28;20207;-84
2021/12/30 07:56:21;;;;;;;4.30;2.40;;;;;18.00;101077.00;;;;5050968;28;20223;-84
2021/12/30 07:58:48;;;;;;;3.65;2.75;;;;;18.00;101072.00;;;;5050517;28;20234;-84
2021/12/30 08:01:17;;;;;;;4.70;2.38;;;;;18.00;101080.00;;;;5050288;28;20200;-82
2021/12/30 08:03:44;;;;;;;3.25;2.30;;;;;18.10;101085.00;;;;5050944;28;20204;-84
2021/12/30 08:06:11;;;;;;;3.88;2.00;;;;;18.10;101091.00;;;;5051343;28;20644;-85
2021/12/30 08:08:39;;;;;;;2.85;1.98;;;;;18.10;101093.00;;;;5050726;28;20211;-84
2021/12/30 08:11:06;;;;;;;3.83;2.28;;;;;18.10;101091.00;;;;5049975;28;20199;-85
2021/12/30 08:13:33;;;;;;;3.78;1.90;;;;;18.10;101086.00;;;;5050267;28;20195;-84
2021/12/30 08:16:01;;;;;;;9.20;2.28;;;;;18.20;101083.00;;;;5050138;28;20622;-84
2021/12/30 08:18:29;;;;;;;4.38;2.10;;;;;18.20;101074.00;;;;5049407;28;20199;-84
2021/12/30 08:20:58;;;;;;;4.85;1.98;;;;;18.20;101086.00;;;;5050544;28;20196;-85
2021/12/30 08:23:26;;;;;;;5.80;2.20;;;;;18.30;101087.00;;;;5048656;28;20669;-85
2021/12/30 08:25:53;;;;;;;6.63;1.73;;;;;18.30;101082.00;;;;5050322;28;20207;-84
2021/12/30 08:28:21;;;;;;;6.65;3.00;;;;;18.30;101080.00;;;;5050395;28;20235;-84
2021/12/30 08:30:48;;;;;;;3.42;1.30;;;;;18.30;101082.00;;;;5050068;28;20200;-85
2021/12/30 08:33:15;;;;;;;4.78;1.85;;;;;18.30;101089.00;;;;5050085;28;20207;-83
2021/12/30 08:35:44;;;;;;;7.35;1.98;;;;;18.30;101095.00;;;;5034648;28;20208;-84
2021/12/30 08:38:13;;;;;;;4.70;1.67;;;;;18.30;101093.00;;;;5030292;28;20656;-84
2021/12/30 08:40:40;;;;;;;5.72;1.70;;;;;18.30;101101.00;;;;5029933;28;20274;-85
2021/12/30 08:43:08;;;;;;;5.45;1.67;;;;;18.30;101111.00;;;;5031737;28;20585;-84
2021/12/30 08:45:36;;;;;;;6.15;1.60;;;;;18.40;101107.00;;;;5048998;28;20198;-86
2021/12/30 08:48:04;;;;;;;6.78;1.92;;;;;18.40;101104.00;;;;5049622;28;20200;-85
2021/12/30 08:50:31;;;;;;;5.90;2.10;;;;;18.40;101106.00;;;;5049691;28;20211;-85
2021/12/30 08:53:00;;;;;;;9.45;2.70;;;;;18.40;101115.00;;;;5032368;28;20216;-83
2021/12/30 08:55:27;;;;;;;5.82;2.10;;;;;18.40;101115.00;;;;5029015;28;20200;-85
2021/12/30 08:57:55;;;;;;;6.72;2.20;;;;;18.40;101108.00;;;;5029653;28;20228;-84
2021/12/30 09:00:25;;;;;;;7.85;2.45;;;;;18.40;101112.00;;;;5030137;28;20220;-84
2021/12/30 09:02:53;;;;;;;8.10;2.55;;;;;18.40;101114.00;;;;5029843;28;20208;-84
2021/12/30 09:05:21;;;;;;;5.88;2.05;;;;;18.40;101119.00;;;;5029802;28;20200;-85
2021/12/30 09:07:49;;;;;;;7.50;2.17;;;;;18.40;101115.00;;;;5028686;28;20212;-84
2021/12/30 09:10:19;;;;;;;3.47;1.90;;;;;18.40;101115.00;;;;5048697;28;20243;-84
2021/12/30 09:12:48;;;;;;;4.30;1.83;;;;;18.50;101111.00;;;;5049671;28;20210;-85
2021/12/30 09:15:18;;;;;;;4.85;2.22;;;;;18.50;101122.00;;;;5049191;28;20211;-85
2021/12/30 09:17:47;;;;;;;9.82;2.80;;;;;18.50;101116.00;;;;5049661;28;20238;-85
2021/12/30 09:20:15;;;;;;;7.07;2.30;;;;;18.50;101131.00;;;;5048996;28;20218;-85
2021/12/30 09:22:43;;;;;;;6.07;2.60;;;;;18.50;101123.00;;;;5048861;28;20200;-85
2021/12/30 09:25:12;;;;;;;4.57;2.25;;;;;18.50;101138.00;;;;5046134;28;20204;-84
2021/12/30 09:27:42;;;;;;;6.18;2.33;;;;;18.50;101141.00;;;;5029341;28;20200;-85
2021/12/30 09:30:13;;;;;;;5.50;2.03;;;;;18.60;101148.00;;;;5029755;28;20200;-85
2021/12/30 09:32:41;;;;;;;4.05;2.13;;;;;18.60;101139.00;;;;5029637;28;20211;-83
2021/12/30 09:35:10;;;;;;;4.90;2.95;;;;;18.60;101146.00;;;;5029316;28;20216;-85
2021/12/30 09:37:37;;;;;;;4.18;1.92;;;;;18.60;101152.00;;;;5028880;28;20235;-85
2021/12/30 09:40:08;;;;;;;6.30;2.10;;;;;18.70;101157.00;;;;5029196;28;20196;-86
2021/12/30 09:42:36;;;;;;;3.45;1.92;;;;;18.70;101161.00;;;;5029282;28;20239;-85
2021/12/30 09:45:06;;;;;;;6.70;2.10;;;;;18.70;101150.00;;;;5029006;28;20200;-84
2021/12/30 09:47:34;;;;;;;3.67;1.98;;;;;18.70;101162.00;;;;5028754;28;20208;-84
2021/12/30 09:50:02;;;;;;;4.95;2.72;;;;;18.80;101161.00;;;;5028562;28;20232;-84
2021/12/30 09:52:29;;;;;;;4.63;2.13;;;;;18.80;101159.00;;;;5028683;28;20196;-84
2021/12/30 09:54:56;;;;;;;6.15;2.33;;;;;18.80;101173.00;;;;5037059;28;20195;-85
2021/12/30 09:57:23;;;;;;;4.38;2.53;;;;;18.80;101169.00;;;;5049067;28;20669;-85
2021/12/30 09:59:51;;;;;;;6.53;2.67;;;;;18.80;101178.00;;;;5040584;28;20220;-84
2021/12/30 10:02:19;;;;;;;6.05;2.53;;;;;18.80;101183.00;;;;5028776;28;20208;-83
2021/12/30 10:04:46;;;;;;;5.57;2.33;;;;;18.80;101188.00;;;;5028807;28;20212;-84
2021/12/30 10:07:23;;;;;;;5.70;2.30;;;;;18.80;101193.00;;;;5028956;28;20446;-82
2021/12/30 10:09:53;;;;;;;5.03;2.67;;;;;18.80;101191.00;;;;5027857;28;20203;-85
2021/12/30 10:12:39;;;;;;;4.47;1.77;;;;;18.80;101195.00;;;;5028891;28;20200;-84
2021/12/30 10:15:07;;;;;;;5.35;2.10;;;;;18.90;101201.00;;;;5027966;28;20204;-85
2021/12/30 10:17:36;;;;;;;4.97;2.10;;;;;18.90;101201.00;;;;5027727;28;20236;-85
2021/12/30 10:20:18;;;;;;;5.13;2.05;;;;;18.80;101201.00;;;;5027937;28;20690;-85
2021/12/30 10:22:47;;;;;;;3.35;1.70;;;;;18.90;101194.00;;;;5027969;28;20674;-84
2021/12/30 10:25:29;;;;;;;5.45;2.00;;;;;18.80;101206.00;;;;5046799;28;20216;-85
2021/12/30 10:27:56;;;;;;;6.65;2.08;;;;;18.90;101204.00;;;;5047959;28;20202;-86
2021/12/30 10:30:32;;;;;;;3.50;1.75;;;;;18.90;101201.00;;;;5048514;28;20210;-84
2021/12/30 10:33:13;;;;;;;7.15;1.77;;;;;18.80;101209.00;;;;5047234;28;20195;-85
2021/12/30 10:35:40;;;;;;;4.97;1.95;;;;;19.00;101201.00;;;;5028552;28;20572;-85
2021/12/30 10:38:11;;;;;;;8.88;2.40;;;;;19.00;101194.00;;;;5027863;28;20714;-85
2021/12/30 10:40:41;;;;;;;4.53;1.65;;;;;18.90;101186.00;;;;5028511;28;20242;-83
2021/12/30 10:43:24;;;;;;;8.88;3.00;;;;;18.90;101196.00;;;;5028809;28;20575;-85
2021/12/30 10:46:09;;;;;;;4.25;2.35;;;;;18.90;101195.00;;;;5028774;28;20211;-84
2021/12/30 10:48:57;;;;;;;2.45;1.27;;;;;18.90;101194.00;;;;5028255;28;20208;-85
2021/12/30 10:51:28;;;;;;;4.57;1.90;;;;;18.90;101202.00;;;;5029456;28;20204;-84
2021/12/30 10:53:58;;;;;;;2.88;1.70;;;;;19.00;101213.00;;;;5028507;28;20239;-85
2021/12/30 10:56:29;;;;;;;2.30;1.35;;;;;19.00;101209.00;;;;5029070;28;20625;-85
2021/12/30 10:59:17;;;;;;;4.20;1.75;;;;;19.00;101215.00;;;;5027845;28;20729;-84
2021/12/30 11:01:46;;;;;;;4.03;1.50;;;;;19.00;101224.00;;;;5043270;28;20210;-85
2021/12/30 11:04:15;;;;;;;2.85;1.58;;;;;19.00;101217.00;;;;5048635;28;20226;-85
2021/12/30 11:06:43;;;;;;;2.25;1.27;;;;;19.00;101227.00;;;;5048035;28;20632;-85
2021/12/30 11:09:17;;;;;;;4.28;1.60;;;;;19.00;101221.00;;;;5029094;28;20678;-85
2021/12/30 11:11:49;;;;;;;3.58;1.90;;;;;19.10;101221.00;;;;5028595;28;20579;-84
2021/12/30 11:14:18;;;;;;;6.80;1.85;;;;;19.10;101221.00;;;;5028657;28;20581;-84
2021/12/30 11:17:04;;;;;;;3.55;1.65;;;;;19.00;101223.00;;;;5027819;28;20232;-85
2021/12/30 11:19:36;;;;;;;4.30;1.67;;;;;19.10;101223.00;;;;5027563;28;20642;-85
2021/12/30 11:22:07;;;;;;;2.65;1.50;;;;;19.10;101233.00;;;;5028002;28;20227;-86
2021/12/30 11:24:35;;;;;;;5.88;1.77;;;;;19.10;101209.00;;;;5038143;28;20212;-86
2021/12/30 11:27:05;;;;;;;2.85;1.90;;;;;19.10;101216.00;;;;5028695;28;20207;-85
2021/12/30 11:29:36;;;;;;;5.20;2.40;;;;;19.00;101225.00;;;;5031984;28;20208;-86
2021/12/30 11:32:05;;;;;;;4.43;1.70;;;;;19.00;101244.00;;;;5031325;28;20224;-85
2021/12/30 11:34:35;;;;;;;4.63;2.33;;;;;19.00;101226.00;;;;5031921;28;20230;-86
2021/12/30 11:37:02;;;;;;;4.53;2.00;;;;;19.00;101229.00;;;;5032200;28;20205;-87
2021/12/30 11:39:30;;;;;;;6.22;2.70;;;;;19.00;101236.00;;;;5031260;28;20200;-87
2021/12/30 11:42:01;;;;;;;9.55;2.13;;;;;19.00;101231.00;;;;5032210;28;20216;-87
2021/12/30 11:44:40;;;;;;;5.80;2.17;;;;;19.00;101228.00;;;;5030784;28;20204;-86
2021/12/30 11:47:10;;;;;;;2.80;2.30;;;;;19.00;101230.00;;;;5031141;28;20606;-86
2021/12/30 11:49:57;;;;;;;2.45;1.90;;;;;18.90;101253.00;;;;5032002;28;20685;-86
2021/12/30 11:52:50;;;;;;;5.07;2.42;;;;;18.80;101239.00;;;;5031639;28;20204;-86
2021/12/30 11:55:40;;;;;;;3.60;2.47;;;;;18.80;101249.00;;;;5031010;28;20227;-85
2021/12/30 11:58:46;;;;;;;5.20;2.50;;;;;18.80;101252.00;;;;5031656;28;20228;-86
2021/12/30 12:01:37;;;;;;;3.30;2.17;;;;;18.80;101254.00;;;;5031348;28;20769;-86
2021/12/30 12:04:09;;;;;;;3.70;1.75;;;;;18.90;101245.00;;;;5042498;28;20195;-87
2021/12/30 12:06:42;;;;;;;5.20;2.30;;;;;18.90;101243.00;;;;5051707;28;20257;-84
2021/12/30 12:09:13;;;;;;;6.53;2.28;;;;;18.90;101241.00;;;;5051319;28;20218;-86
2021/12/30 12:11:49;;;;;;;4.78;2.50;;;;;18.80;101242.00;;;;5051558;28;20204;-85
2021/12/30 12:14:20;;;;;;;3.38;2.17;;;;;18.90;101237.00;;;;5051035;28;20589;-84
2021/12/30 12:16:55;;;;;;;3.72;2.60;;;;;18.90;101245.00;;;;5035121;28;20236;-86